Latest Weather Observations for Forbes

IDN60801

Issued at 4:05 pm EST Sunday 31 August 2014 (issued every 30 minutes, with the page automatically refreshed every 10 minutes)

About weather observations | Map of weather stations | Latest weather observations for NSW | Other Formats
Station Details ID: 065103 Name: FORBES AIRPORT AWS Lat: -33.36 Lon: 147.92 Height: 230.4 m
Data from the previous 72 hours. | See also: Recent months at Forbes
Date/Time
EST
Temp
°C
App
Temp
°C
Dew
Point
Rel
Hum
%
Delta-T
°C
Wind Press
QNH
hPa
Press
MSL
hPa
Rain
since 9 am
mm
Dir
 
Spd
km/h
Gust
km/h
Spd
kts
Gust
kts
31/04:00pm 19.6 18.3 7.7 46 6.2 WSW 4 9 2 5 1017.3 1017.6 0.0
31/03:30pm 20.0 19.1 7.7 45 6.4 S 2 9 1 5 1017.4 - 0.0
31/03:00pm 19.8 17.9 7.5 45 6.3 NW 7 19 4 10 1017.7 1018.0 0.0
31/02:30pm 18.8 16.9 7.6 48 5.8 S 7 13 4 7 1017.9 - 0.0
31/02:00pm 19.3 17.9 8.9 51 5.5 WSW 6 11 3 6 1018.4 1018.6 0.0
31/01:30pm 19.5 17.3 7.9 47 6.0 W 9 15 5 8 1018.7 - 0.0
31/01:00pm 19.2 17.7 9.1 52 5.4 NW 7 13 4 7 1019.2 1019.5 0.0
31/12:30pm 18.2 16.7 9.3 56 4.7 W 7 17 4 9 1019.8 - 0.0
31/12:00pm 17.6 15.9 8.5 55 4.7 WNW 7 11 4 6 1020.4 1020.7 0.0
31/11:30am 16.9 15.3 8.6 58 4.3 WNW 7 15 4 8 1020.9 - 0.0
31/11:00am 16.6 15.3 9.1 61 3.9 NW 6 11 3 6 1021.4 1021.7 0.0
31/10:30am 15.3 14.3 8.8 65 3.4 W 4 7 2 4 1021.8 - 0.0
31/10:00am 14.2 14.1 9.4 73 2.5 CALM 0 0 0 0 1022.0 1022.3 0.0
31/09:30am 12.5 12.3 9.0 79 1.8 CALM 0 6 0 3 1022.2 - 0.0
31/09:00am 11.1 10.0 8.5 84 1.3 E 4 7 2 4 1022.2 1022.5 0.0
31/08:30am 9.2 8.1 8.6 96 0.3 E 4 9 2 5 1022.2 - 0.0
31/08:00am 6.7 5.9 6.6 99 0.0 CALM 0 0 0 0 1022.0 1022.3 0.0
31/07:30am 4.1 2.8 4.0 99 0.0 CALM 0 0 0 0 1021.7 - 0.0
31/07:00am 1.0 -0.8 0.9 99 0.0 CALM 0 0 0 0 1021.5 1021.8 0.0
31/06:30am 0.8 -1.1 0.7 99 0.0 CALM 0 0 0 0 1021.1 - 0.0
31/06:00am 1.1 -1.5 1.0 99 0.0 SSW 4 7 2 4 1020.9 1021.2 0.0
31/05:30am 1.1 -0.7 1.0 99 0.0 CALM 0 6 0 3 1020.6 - 0.0
31/05:00am 1.9 -0.9 1.8 99 0.0 SSE 6 7 3 4 1020.6 1020.9 0.0
31/04:30am 1.9 -1.1 1.8 99 0.0 WSW 7 9 4 5 1020.7 - 0.0
31/04:00am 2.1 0.0 2.0 99 0.0 W 2 9 1 5 1020.7 1021.0 0.0
31/03:30am 2.4 0.7 2.1 98 0.1 CALM 0 0 0 0 1020.7 - 0.0
31/03:00am 3.1 1.6 3.0 99 0.0 CALM 0 0 0 0 1020.8 1021.1 0.0
31/02:30am 3.0 1.5 2.9 99 0.0 CALM 0 0 0 0 1021.0 - 0.0
31/02:00am 2.9 1.3 2.5 97 0.2 CALM 0 0 0 0 1021.3 1021.6 0.0
31/01:30am 3.9 1.4 3.8 99 0.0 SE 6 7 3 4 1021.6 - 0.0
31/01:00am 3.9 1.4 3.6 98 0.1 ESE 6 7 3 4 1021.9 1022.2 0.0
31/12:30am 4.4 2.0 4.1 98 0.1 E 6 7 3 4 1021.9 - 0.0
31/12:00am 4.8 3.6 4.4 97 0.2 S 0 0 0 0 1022.0 1022.3 0.0
 
Date/Time
EST
Temp
°C
App
Temp
°C
Dew
Point
Rel
Hum
%
Delta-T
°C
Wind Press
QNH
hPa
Press
MSL
hPa
Rain
since 9 am
mm
Dir
 
Spd
km/h
Gust
km/h
Spd
kts
Gust
kts
30/11:30pm 4.5 3.2 3.9 96 0.3 CALM 0 0 0 0 1022.1 - 0.0
30/11:00pm 5.6 3.2 5.3 98 0.1 SSE 7 9 4 5 1022.1 1022.4 0.0
30/10:30pm 5.9 4.9 5.5 97 0.2 CALM 0 0 0 0 1022.2 - 0.0
30/10:00pm 5.8 4.7 5.1 95 0.3 CALM 0 0 0 0 1022.3 1022.6 0.0
30/09:30pm 6.7 5.7 5.7 93 0.5 CALM 0 0 0 0 1022.6 - 0.0
30/09:00pm 7.1 4.8 5.6 90 0.7 S 7 7 4 4 1022.5 1022.7 0.0
30/08:30pm 8.6 6.5 6.7 88 0.9 SE 7 9 4 5 1022.3 - 0.0
30/08:00pm 9.9 7.9 7.3 84 1.2 SE 7 7 4 4 1022.3 1022.6 0.0
30/07:30pm 11.1 8.8 7.6 79 1.7 SSE 9 11 5 6 1022.2 - 0.0
30/07:00pm 12.9 10.5 8.6 75 2.2 SE 11 13 6 7 1022.0 1022.3 0.0
30/06:30pm 12.6 10.6 8.7 77 2.0 SE 9 11 5 6 1021.8 - 0.0
30/06:00pm 13.3 11.7 8.6 73 2.4 SSE 7 9 4 5 1021.7 1022.0 0.0
30/05:30pm 15.9 14.3 8.9 63 3.6 SE 7 11 4 6 1021.7 - 0.0
30/05:00pm 17.1 14.4 8.8 58 4.3 ESE 13 19 7 10 1021.7 1022.0 0.0
30/04:30pm 17.7 14.9 8.6 55 4.7 SE 13 20 7 11 1021.6 - 0.0
30/04:00pm 18.0 14.9 8.8 55 4.8 ESE 15 22 8 12 1021.5 1021.8 0.0
30/03:30pm 18.1 15.9 9.5 57 4.6 ESE 11 17 6 9 1021.7 - 0.0
30/03:00pm 18.0 14.6 9.1 56 4.7 SE 17 26 9 14 1021.7 1022.0 0.0
30/02:30pm 17.8 14.3 8.6 55 4.8 ESE 17 20 9 11 1022.1 - 0.0
30/02:00pm 17.6 14.0 8.2 54 4.8 ESE 17 22 9 12 1022.6 1022.9 0.0
30/01:30pm 17.2 13.0 8.4 56 4.6 ESE 20 28 11 15 1023.0 - 0.0
30/01:00pm 16.9 12.7 8.3 57 4.4 SE 20 30 11 16 1023.5 1023.8 0.0
30/12:30pm 17.1 13.2 8.5 57 4.5 ESE 19 24 10 13 1024.0 - 0.0
30/12:00pm 16.1 11.7 7.6 57 4.3 ESE 20 32 11 17 1024.6 1024.9 0.0
30/11:30am 15.5 10.7 7.3 58 4.1 ESE 22 30 12 16 1025.1 - 0.0
30/11:00am 14.7 10.2 6.8 59 3.9 ESE 20 28 11 15 1025.6 1025.9 0.0
30/10:30am 14.0 9.4 6.4 60 3.7 ESE 20 28 11 15 1025.9 - 0.0
30/10:00am 13.0 8.5 5.9 62 3.4 ESE 19 30 10 16 1026.0 1026.3 0.0
30/09:30am 12.1 7.5 5.7 65 3.0 SE 19 28 10 15 1026.0 - 0.0
30/09:00am 11.3 6.5 5.8 69 2.6 ESE 20 30 11 16 1026.2 1026.6 0.0
30/08:30am 10.1 5.8 5.3 72 2.2 ESE 17 24 9 13 1026.2 - 0.0
30/08:00am 8.4 5.6 5.2 80 1.4 ESE 9 13 5 7 1026.0 1026.3 0.0
30/07:30am 6.3 3.9 5.3 93 0.4 E 7 9 4 5 1026.0 - 0.0
30/07:00am 2.9 -0.2 1.6 91 0.5 E 7 9 4 5 1025.7 1026.0 0.0
30/06:30am 5.3 1.8 3.5 88 0.8 SE 11 15 6 8 1025.5 - 0.0
30/06:00am 5.5 1.8 4.2 91 0.6 ESE 13 19 7 10 1025.2 1025.5 0.0
30/05:30am 5.3 1.6 4.3 93 0.4 ESE 13 15 7 8 1025.2 - 0.0
30/05:00am 4.8 1.4 4.1 95 0.3 SE 11 15 6 8 1025.2 1025.5 0.0
30/04:30am 3.8 -0.1 3.2 96 0.2 SSE 13 15 7 8 1025.2 - 0.0
30/04:00am 3.5 -0.2 2.5 93 0.4 SSE 11 15 6 8 1025.0 1025.3 0.0
30/03:30am 6.3 2.7 5.1 92 0.5 SE 13 15 7 8 1024.9 - 0.0
30/03:00am 4.0 0.5 3.3 95 0.3 SSE 11 15 6 8 1024.8 1025.1 0.0
30/02:30am 3.8 1.0 3.2 96 0.2 SE 7 11 4 6 1024.9 - 0.0
30/02:00am 3.9 1.4 3.6 98 0.1 SE 6 9 3 5 1024.9 1025.2 0.0
30/01:30am 3.9 2.5 3.6 98 0.1 CALM 0 0 0 0 1025.0 - 0.0
30/01:00am 4.0 2.6 3.4 96 0.2 CALM 0 0 0 0 1025.2 1025.5 0.0
30/12:30am 3.6 1.7 3.0 96 0.2 E 2 7 1 4 1025.3 - 0.0
30/12:00am 4.2 1.1 3.6 96 0.2 ESE 9 11 5 6 1025.2 1025.5 0.0
 
Date/Time
EST
Temp
°C
App
Temp
°C
Dew
Point
Rel
Hum
%
Delta-T
°C
Wind Press
QNH
hPa
Press
MSL
hPa
Rain
since 9 am
mm
Dir
 
Spd
km/h
Gust
km/h
Spd
kts
Gust
kts
29/11:30pm 4.7 2.1 4.3 97 0.2 S 7 11 4 6 1025.2 - 0.0
29/11:00pm 5.2 3.9 4.2 93 0.4 CALM 0 0 0 0 1025.1 1025.4 0.0
29/10:30pm 5.3 4.0 4.3 93 0.4 CALM 0 0 0 0 1025.1 - 0.0
29/10:00pm 5.8 4.5 4.1 89 0.7 CALM 0 0 0 0 1025.3 1025.6 0.0
29/09:30pm 6.7 4.9 5.2 90 0.7 SE 4 7 2 4 1025.1 - 0.0
29/09:00pm 7.4 4.6 5.2 86 1.0 S 9 11 5 6 1025.2 1025.5 0.0
29/08:30pm 8.0 5.3 5.8 86 1.0 S 9 11 5 6 1025.3 - 0.0
29/08:00pm 8.2 5.5 5.8 85 1.1 SSW 9 9 5 5 1025.5 1025.8 0.0
29/07:30pm 9.6 7.0 6.1 79 1.6 SSW 9 11 5 6 1025.3 - 0.0
29/07:00pm 9.5 6.9 6.2 80 1.5 S 9 11 5 6 1025.2 1025.5 0.0
29/06:30pm 10.6 7.9 7.3 80 1.6 S 11 13 6 7 1025.1 - 0.0
29/06:00pm 12.1 9.8 7.6 74 2.2 S 9 11 5 6 1024.9 1025.2 0.0
29/05:30pm 14.7 12.2 8.0 64 3.4 S 11 13 6 7 1024.6 - 0.0
29/05:00pm 16.5 14.0 8.0 57 4.3 S 11 15 6 8 1024.5 1024.8 0.0
29/04:30pm 17.2 13.5 6.4 49 5.4 S 15 20 8 11 1024.3 - 0.0
29/04:00pm 17.7 13.4 6.9 49 5.4 S 19 24 10 13 1024.3 1024.6 0.0
29/03:30pm 18.0 14.4 6.8 48 5.6 S 15 24 8 13 1024.4 - 0.0
29/03:00pm 17.8 14.5 8.1 53 5.0 S 15 19 8 10 1024.5 1024.8 0.0
29/02:30pm 17.7 14.5 8.3 54 4.9 S 15 20 8 11 1024.9 - 0.0
29/02:00pm 17.6 14.4 8.5 55 4.7 S 15 22 8 12 1025.2 1025.5 0.0
29/01:30pm 17.0 14.1 8.2 56 4.5 S 13 20 7 11 1025.6 - 0.0
29/01:00pm 16.5 13.6 8.0 57 4.3 SSE 13 20 7 11 1026.1 1026.4 0.0
29/12:30pm 16.1 14.3 8.1 59 4.1 SSW 7 13 4 7 1026.6 - 0.0
29/12:00pm 16.0 14.0 8.7 62 3.7 S 9 13 5 7 1027.2 1027.5 0.0
29/11:30am 15.9 14.5 8.9 63 3.6 SSE 6 17 3 9 1027.6 - 0.0
29/11:00am 14.9 12.2 7.5 61 3.7 SSE 11 17 6 9 1028.0 1028.3 0.0
29/10:30am 14.1 11.8 7.4 64 3.3 ESE 9 13 5 7 1028.2 - 0.0
29/10:00am 13.0 10.8 7.9 71 2.5 SE 9 15 5 8 1028.4 1028.7 0.0
29/09:30am 11.9 9.8 8.4 79 1.7 SE 9 13 5 7 1028.6 - 0.0
29/09:00am 10.5 8.3 7.7 83 1.4 ESE 9 13 5 7 1028.8 1029.1 0.0
29/08:30am 9.1 7.5 7.9 92 0.6 ESE 6 9 3 5 1028.7 - 0.0
29/08:00am 6.7 5.9 6.6 99 0.0 CALM 0 0 0 0 1028.6 1028.9 0.0
29/07:30am 4.2 2.9 4.1 99 0.0 CALM 0 0 0 0 1028.4 - 0.0
29/07:00am 2.1 0.4 2.0 99 0.0 CALM 0 0 0 0 1028.1 1028.4 0.0
29/06:30am 0.8 -1.1 0.7 99 0.0 CALM 0 0 0 0 1027.8 - 0.0
29/06:00am 1.2 -0.6 1.1 99 0.0 CALM 0 0 0 0 1027.4 1027.7 0.0
29/05:30am 1.0 -0.8 0.9 99 0.0 CALM 0 0 0 0 1027.1 - 0.0
29/05:00am 1.7 -1.2 1.6 99 0.0 SE 6 7 3 4 1026.7 1027.1 0.0
29/04:30am 2.6 -0.1 2.5 99 0.0 SSW 6 7 3 4 1026.8 - 0.0
29/04:00am 2.4 -0.6 2.3 99 0.0 S 7 7 4 4 1026.7 1027.1 0.0
29/03:30am 2.6 0.3 2.5 99 0.0 S 4 7 2 4 1026.7 - 0.0
29/03:00am 2.4 0.7 2.1 98 0.1 CALM 0 0 0 0 1026.4 1026.8 0.0
29/02:30am 2.8 1.2 2.5 98 0.1 CALM 0 0 0 0 1026.5 - 0.0
29/02:00am 3.3 1.4 3.0 98 0.1 SE 2 7 1 4 1026.7 1027.1 0.0
29/01:30am 4.1 2.7 3.8 98 0.1 CALM 0 0 0 0 1027.0 - 0.0
29/01:00am 4.0 2.6 3.6 97 0.2 CALM 0 0 0 0 1027.2 1027.5 0.0
29/12:30am 4.2 2.8 3.8 97 0.2 CALM 0 0 0 0 1027.3 - 0.0
29/12:00am 4.0 1.8 3.3 95 0.3 NNE 4 7 2 4 1027.4 1027.7 0.0
 
Date/Time
EST
Temp
°C
App
Temp
°C
Dew
Point
Rel
Hum
%
Delta-T
°C
Wind Press
QNH
hPa
Press
MSL
hPa
Rain
since 9 am
mm
Dir
 
Spd
km/h
Gust
km/h
Spd
kts
Gust
kts
28/11:30pm 5.2 3.6 4.3 94 0.4 E 2 6 1 3 1027.5 - 0.0
28/11:00pm 5.7 2.5 5.0 95 0.3 S 11 13 6 7 1027.2 1027.5 0.0
28/10:30pm 5.6 3.0 4.2 91 0.6 SSE 7 7 4 4 1027.4 - 0.0
28/10:00pm 6.8 4.5 5.0 88 0.8 SE 6 7 3 4 1027.4 1027.7 0.0
28/09:30pm 7.9 4.9 6.2 89 0.8 S 11 13 6 7 1027.3 - 0.0
28/09:00pm 7.7 4.7 6.0 89 0.8 S 11 11 6 6 1027.2 1027.5 0.0
28/08:30pm 8.7 5.8 6.7 87 0.9 S 11 13 6 7 1027.0 - 0.0
28/08:00pm 9.2 6.0 6.8 85 1.1 S 13 13 7 7 1026.8 1027.2 0.0
28/07:30pm 10.2 7.1 7.1 81 1.5 S 13 15 7 8 1026.6 - 0.0
28/07:00pm 12.3 8.9 7.8 74 2.2 S 15 19 8 10 1026.3 1026.7 0.0
28/06:30pm 12.3 8.7 8.2 76 2.0 S 17 20 9 11 1026.2 - 0.0
28/06:00pm 13.1 9.8 8.2 72 2.4 S 15 19 8 10 1025.9 1026.2 0.0
28/05:30pm 14.6 11.7 8.3 66 3.2 S 13 17 7 9 1025.7 - 0.0
28/05:00pm 16.5 13.7 8.7 60 4.0 S 13 15 7 8 1025.5 1025.8 0.0
28/04:30pm 17.3 15.4 7.6 53 4.9 S 7 7 4 4 1025.3 - 0.0

Other Formats:

Comma delimited format used in spreadsheet applications
http://www.bom.gov.au/fwo/IDN60801/IDN60801.94715.axf

JavaScript Object Notation format (JSON) in row-major order
http://www.bom.gov.au/fwo/IDN60801/IDN60801.94715.json